createdAt,value
2022-10-14T00:01:57.006Z,79.64
2022-10-14T00:04:24.457Z,79.64
2022-10-14T00:06:50.880Z,79.88
2022-10-14T00:09:17.304Z,79.98
2022-10-14T00:11:43.799Z,80.15
2022-10-14T00:14:16.414Z,80.13
2022-10-14T00:16:47.197Z,80.36
2022-10-14T00:19:14.267Z,80.00
2022-10-14T00:21:43.219Z,79.50
2022-10-14T00:24:11.479Z,79.32
2022-10-14T00:26:39.059Z,79.29
2022-10-14T00:29:08.252Z,78.78
2022-10-14T00:31:35.340Z,78.98
2022-10-14T00:34:01.811Z,79.21
2022-10-14T00:36:28.488Z,79.77
2022-10-14T00:38:55.246Z,80.23
2022-10-14T00:41:30.429Z,80.89
2022-10-14T00:44:01.307Z,81.05
2022-10-14T00:46:38.804Z,81.46
2022-10-14T00:49:36.143Z,81.52
2022-10-14T00:52:13.886Z,81.78
2022-10-14T00:55:01.376Z,81.77
2022-10-14T00:57:28.350Z,81.96
2022-10-14T00:59:56.838Z,82.00
2022-10-14T01:02:23.275Z,82.09
2022-10-14T01:04:49.712Z,82.23
2022-10-14T01:07:34.774Z,82.45
2022-10-14T01:10:07.228Z,82.75
2022-10-14T01:12:45.590Z,82.93
2022-10-14T01:15:38.405Z,83.10
2022-10-14T01:18:23.296Z,83.27
2022-10-14T01:20:57.823Z,83.24
2022-10-14T01:23:39.545Z,83.28
2022-10-14T01:26:24.794Z,83.41
2022-10-14T01:29:17.388Z,83.47
2022-10-14T01:32:04.344Z,83.39
2022-10-14T01:34:36.264Z,83.22
2022-10-14T01:37:07.092Z,83.23
2022-10-14T01:39:39.441Z,83.20
2022-10-14T01:42:10.114Z,83.01
2022-10-14T01:44:39.030Z,83.38
2022-10-14T01:47:06.642Z,83.34
2022-10-14T01:49:36.971Z,83.39
2022-10-14T01:52:10.147Z,83.57
2022-10-14T01:54:40.896Z,83.53
2022-10-14T01:57:14.332Z,83.56
2022-10-14T01:59:41.239Z,83.47
2022-10-14T02:02:07.740Z,83.51
2022-10-14T02:04:34.175Z,83.52
2022-10-14T02:07:25.356Z,83.86
2022-10-14T02:10:22.696Z,83.94
2022-10-14T02:13:10.830Z,83.88
2022-10-14T02:16:10.886Z,84.27
2022-10-14T02:18:51.636Z,84.38
2022-10-14T02:21:25.784Z,84.72
2022-10-14T02:24:00.887Z,84.97
2022-10-14T02:26:28.071Z,84.76
2022-10-14T02:28:55.578Z,84.94
2022-10-14T02:31:23.070Z,85.30
2022-10-14T02:33:52.160Z,85.29
2022-10-14T02:36:20.684Z,85.54
2022-10-14T02:38:48.350Z,85.41
2022-10-14T02:41:17.591Z,85.58
2022-10-14T02:43:45.390Z,85.48
2022-10-14T02:46:11.817Z,85.71
2022-10-14T02:48:38.270Z,85.84
2022-10-14T02:51:04.786Z,85.73
2022-10-14T02:53:31.186Z,86.18
2022-10-14T02:55:57.591Z,86.20
2022-10-14T02:58:24.072Z,86.73
2022-10-14T03:00:50.496Z,86.83
2022-10-14T03:03:16.952Z,86.77
2022-10-14T03:05:43.416Z,86.81
2022-10-14T03:08:10.881Z,87.15
2022-10-14T03:10:37.298Z,87.24
2022-10-14T03:13:04.085Z,86.72
2022-10-14T03:15:30.505Z,86.18
2022-10-14T03:17:56.961Z,85.97
2022-10-14T03:20:23.529Z,85.66
2022-10-14T03:22:49.986Z,85.46
2022-10-14T03:25:17.411Z,85.61
2022-10-14T03:27:43.870Z,85.04
2022-10-14T03:30:10.605Z,84.66
2022-10-14T03:32:37.051Z,84.79
2022-10-14T03:35:03.605Z,84.74
2022-10-14T03:37:30.015Z,84.61
2022-10-14T03:39:56.444Z,84.69
2022-10-14T03:42:23.001Z,84.77
2022-10-14T03:44:49.715Z,84.58
2022-10-14T03:47:16.213Z,84.78
2022-10-14T03:49:42.628Z,85.15
2022-10-14T03:52:09.101Z,85.06
2022-10-14T03:54:36.397Z,84.94
2022-10-14T03:57:02.820Z,85.47
2022-10-14T03:59:29.229Z,85.81
2022-10-14T04:01:55.693Z,86.46
2022-10-14T04:04:22.156Z,87.19
2022-10-14T04:06:48.582Z,87.64
2022-10-14T04:09:15.046Z,87.95
2022-10-14T04:11:41.491Z,87.77
2022-10-14T04:14:08.410Z,88.01
2022-10-14T04:16:34.827Z,87.94
2022-10-14T04:19:01.241Z,87.82
2022-10-14T04:21:28.677Z,87.95
2022-10-14T04:23:55.083Z,87.99
2022-10-14T04:26:21.498Z,88.28
2022-10-14T04:28:48.012Z,88.12
2022-10-14T04:31:14.502Z,88.27
2022-10-14T04:33:40.946Z,88.27
2022-10-14T04:36:07.839Z,88.71
2022-10-14T04:38:34.258Z,88.97
2022-10-14T04:41:00.767Z,88.97
2022-10-14T04:43:27.196Z,89.40
2022-10-14T04:45:54.325Z,89.21
2022-10-14T04:48:20.898Z,89.46
2022-10-14T04:50:51.493Z,89.19
2022-10-14T04:53:21.900Z,89.01
2022-10-14T04:55:49.615Z,88.90
2022-10-14T04:58:16.844Z,88.20
2022-10-14T05:00:43.391Z,87.62
2022-10-14T05:03:09.813Z,87.32
2022-10-14T05:05:36.247Z,86.70
2022-10-14T05:08:02.851Z,86.66
2022-10-14T05:10:29.279Z,86.68
2022-10-14T05:12:55.827Z,86.90
2022-10-14T05:15:22.273Z,86.95
2022-10-14T05:17:48.696Z,87.64
2022-10-14T05:20:15.144Z,87.19
2022-10-14T05:22:44.443Z,87.90
2022-10-14T05:25:10.879Z,88.28
2022-10-14T05:27:37.290Z,89.11
2022-10-14T05:30:03.969Z,89.69
2022-10-14T05:32:30.390Z,90.02
2022-10-14T05:34:56.784Z,89.91
2022-10-14T05:37:23.218Z,90.17
2022-10-14T05:39:49.681Z,90.72
2022-10-14T05:42:16.111Z,90.80
2022-10-14T05:44:42.530Z,90.76
2022-10-14T05:47:10.299Z,90.90
2022-10-14T05:49:36.780Z,90.61
2022-10-14T05:52:03.324Z,90.63
2022-10-14T05:54:29.723Z,90.81
2022-10-14T05:56:56.817Z,90.65
2022-10-14T05:59:23.273Z,90.71
2022-10-14T06:01:49.947Z,90.87
2022-10-14T06:04:18.704Z,90.90
2022-10-14T06:06:45.313Z,90.76
2022-10-14T06:09:12.252Z,90.98
2022-10-14T06:11:39.018Z,91.05
2022-10-14T06:14:05.509Z,91.01
2022-10-14T06:16:32.116Z,91.28
2022-10-14T06:18:58.523Z,91.62
2022-10-14T06:21:25.129Z,91.83
2022-10-14T06:23:51.780Z,91.92
2022-10-14T06:26:18.286Z,92.31
2022-10-14T06:28:45.001Z,92.12
2022-10-14T06:31:11.484Z,92.25
2022-10-14T06:33:37.989Z,92.21
2022-10-14T06:36:05.781Z,92.43
2022-10-14T06:38:32.214Z,92.70
2022-10-14T06:40:58.683Z,92.66
2022-10-14T06:43:25.123Z,92.68
2022-10-14T06:45:52.699Z,92.60
2022-10-14T06:48:19.114Z,92.54
2022-10-14T06:50:45.523Z,92.67
2022-10-14T06:53:11.967Z,92.58
2022-10-14T06:55:38.390Z,92.80
2022-10-14T06:58:05.815Z,93.13
2022-10-14T07:00:32.586Z,93.60
2022-10-14T07:02:59.502Z,93.57
2022-10-14T07:05:26.605Z,94.47
2022-10-14T07:07:53.059Z,94.82
2022-10-14T07:10:19.518Z,94.96
2022-10-14T07:12:46.936Z,95.39
2022-10-14T07:15:13.354Z,95.81
2022-10-14T07:17:39.890Z,96.07
2022-10-14T07:20:06.932Z,96.39
2022-10-14T07:22:38.629Z,96.57
2022-10-14T07:25:06.113Z,97.14
2022-10-14T07:27:32.846Z,97.20
2022-10-14T07:29:59.292Z,97.57
2022-10-14T07:32:25.737Z,97.63
2022-10-14T07:34:52.180Z,98.11
2022-10-14T07:37:18.735Z,98.36
2022-10-14T07:39:45.166Z,98.29
2022-10-14T07:42:11.578Z,98.48
2022-10-14T07:44:39.787Z,98.32
2022-10-14T07:47:06.679Z,98.55
2022-10-14T07:49:33.139Z,98.68
2022-10-14T07:51:59.564Z,98.69
2022-10-14T07:54:29.431Z,98.82
2022-10-14T07:56:57.915Z,98.67
2022-10-14T07:59:24.917Z,98.65
2022-10-14T08:01:53.145Z,98.81
2022-10-14T08:04:19.919Z,98.73
2022-10-14T08:06:49.979Z,98.87
2022-10-14T08:09:17.036Z,98.89
2022-10-14T08:11:44.362Z,99.11
2022-10-14T08:14:10.826Z,98.98
2022-10-14T08:16:38.094Z,99.12
2022-10-14T08:19:14.221Z,99.19
2022-10-14T08:21:42.465Z,99.50
2022-10-14T08:24:09.498Z,99.74
2022-10-14T08:26:38.157Z,99.88
2022-10-14T08:29:06.755Z,100.00
2022-10-14T08:31:33.570Z,100.00
2022-10-14T08:34:00.101Z,100.00
2022-10-14T08:36:26.666Z,100.00
2022-10-14T08:38:54.204Z,100.00
2022-10-14T08:41:26.219Z,100.00
2022-10-14T08:44:06.070Z,100.00
2022-10-14T08:46:38.274Z,100.00
2022-10-14T08:49:17.290Z,100.00
2022-10-14T08:51:45.531Z,100.00
2022-10-14T08:54:27.969Z,100.00
2022-10-14T08:56:56.128Z,100.00
2022-10-14T08:59:22.762Z,100.00
2022-10-14T09:02:24.680Z,99.96
2022-10-14T09:04:51.171Z,99.82
2022-10-14T09:07:18.890Z,99.57
2022-10-14T09:09:49.829Z,99.48
2022-10-14T09:12:18.743Z,99.14
2022-10-14T09:14:48.571Z,98.97
2022-10-14T09:17:23.212Z,98.43
2022-10-14T09:20:22.562Z,97.86
2022-10-14T09:23:02.368Z,97.25
2022-10-14T09:25:31.174Z,96.96
2022-10-14T09:27:57.596Z,96.60
2022-10-14T09:30:24.008Z,95.97
2022-10-14T09:32:52.544Z,95.56
2022-10-14T09:35:32.938Z,95.28
2022-10-14T09:37:59.542Z,94.47
2022-10-14T09:40:35.084Z,94.17
2022-10-14T09:43:10.471Z,94.01
2022-10-14T09:45:59.239Z,93.54
2022-10-14T09:48:37.686Z,93.32
2022-10-14T09:51:30.422Z,93.04
2022-10-14T09:54:02.296Z,92.58
2022-10-14T09:56:30.545Z,92.27
2022-10-14T09:58:57.898Z,92.15
2022-10-14T10:01:29.257Z,91.71
2022-10-14T10:03:56.533Z,91.44
2022-10-14T10:06:25.819Z,90.83
2022-10-14T10:08:55.426Z,90.67
2022-10-14T10:11:35.557Z,89.68
2022-10-14T10:14:18.083Z,89.22
2022-10-14T10:16:44.655Z,88.47
2022-10-14T10:19:29.823Z,87.85
2022-10-14T10:25:14.626Z,85.96
2022-10-14T10:27:42.954Z,84.70
2022-10-14T10:30:18.710Z,84.38
2022-10-14T10:32:50.994Z,84.14
2022-10-14T10:35:52.049Z,84.21
2022-10-14T10:38:26.035Z,83.38
2022-10-14T10:41:19.595Z,82.48
2022-10-14T10:44:04.653Z,82.21
2022-10-14T10:46:40.395Z,81.83
2022-10-14T10:49:38.394Z,81.20
2022-10-14T10:52:18.816Z,80.55
2022-10-14T10:54:56.863Z,80.16
2022-10-14T10:57:41.797Z,79.53
2022-10-14T11:00:22.557Z,77.27
2022-10-14T11:02:58.045Z,77.14
2022-10-14T11:05:42.698Z,76.71
2022-10-14T11:08:43.467Z,75.27
2022-10-14T11:11:44.721Z,74.85
2022-10-14T11:14:30.162Z,74.75
2022-10-14T11:17:02.664Z,74.83
2022-10-14T11:20:14.603Z,74.48
2022-10-14T11:23:07.613Z,74.10
2022-10-14T11:25:40.133Z,74.02
2022-10-14T11:28:18.842Z,74.37
2022-10-14T11:30:57.398Z,73.94
2022-10-14T11:33:38.947Z,74.13
2022-10-14T11:36:15.556Z,73.76
2022-10-14T11:38:53.344Z,73.38
2022-10-14T11:41:41.174Z,72.84
2022-10-14T11:44:25.833Z,72.68
2022-10-14T11:46:54.582Z,72.41
2022-10-14T11:49:26.679Z,72.28
2022-10-14T11:51:57.074Z,72.29
2022-10-14T11:54:40.079Z,71.99
2022-10-14T11:57:18.225Z,71.31
2022-10-14T12:00:03.433Z,70.60
2022-10-14T12:02:57.833Z,70.31
2022-10-14T12:05:36.398Z,69.67
2022-10-14T12:08:09.970Z,69.18
2022-10-14T12:10:42.711Z,68.38
2022-10-14T12:13:14.154Z,68.19
2022-10-14T12:15:44.712Z,67.72
2022-10-14T12:18:11.602Z,67.31
2022-10-14T12:20:47.623Z,66.28
2022-10-14T12:23:34.401Z,66.09
2022-10-14T12:26:11.173Z,65.78
2022-10-14T12:28:38.197Z,64.80
2022-10-14T12:31:32.060Z,65.17
2022-10-14T12:34:10.643Z,65.56
2022-10-14T12:36:43.004Z,65.10
2022-10-14T12:39:19.459Z,64.87
2022-10-14T12:41:59.621Z,64.43
2022-10-14T12:44:43.439Z,64.62
2022-10-14T12:47:19.962Z,64.05
2022-10-14T12:49:52.116Z,62.27
2022-10-14T12:52:22.272Z,61.95
2022-10-14T12:54:49.374Z,61.87
2022-10-14T12:57:28.761Z,62.01
2022-10-14T12:59:57.908Z,61.81
2022-10-14T13:02:43.102Z,61.66
2022-10-14T13:05:23.019Z,61.65
2022-10-14T13:08:09.315Z,61.87
2022-10-14T13:10:44.926Z,61.18
2022-10-14T13:13:42.000Z,61.46
2022-10-14T13:16:09.911Z,61.28
2022-10-14T13:18:42.343Z,61.05
2022-10-14T13:21:10.617Z,61.27
2022-10-14T13:23:43.795Z,61.79
2022-10-14T13:26:30.493Z,61.27
2022-10-14T13:29:18.698Z,61.23
2022-10-14T13:32:12.579Z,61.54
2022-10-14T13:34:57.797Z,61.89
2022-10-14T13:37:28.315Z,61.44
2022-10-14T13:39:55.838Z,61.13
2022-10-14T13:42:26.855Z,61.20
2022-10-14T13:44:56.304Z,61.42
2022-10-14T13:47:23.410Z,61.53
2022-10-14T13:49:50.894Z,61.59
2022-10-14T13:52:25.870Z,61.62
2022-10-14T13:55:11.029Z,61.33
2022-10-14T13:58:07.842Z,61.20
2022-10-14T14:00:45.858Z,61.27
2022-10-14T14:03:37.134Z,61.16
2022-10-14T14:06:10.338Z,61.20
2022-10-14T14:08:45.297Z,60.84
2022-10-14T14:11:21.546Z,60.13
2022-10-14T14:14:01.396Z,60.31
2022-10-14T14:16:37.591Z,59.84
2022-10-14T14:19:08.691Z,59.82
2022-10-14T14:21:35.928Z,59.88
2022-10-14T14:24:02.374Z,59.85
2022-10-14T14:26:34.448Z,60.36
2022-10-14T14:29:05.054Z,60.32
2022-10-14T14:32:01.312Z,60.83
2022-10-14T14:34:19.743Z,60.71
2022-10-14T14:36:51.770Z,60.52
2022-10-14T14:39:25.145Z,60.35
2022-10-14T14:41:53.522Z,60.75
2022-10-14T14:44:26.759Z,60.78
2022-10-14T14:46:57.151Z,60.86
2022-10-14T14:49:28.482Z,61.41
2022-10-14T14:51:55.827Z,60.85
2022-10-14T14:54:23.074Z,60.82
2022-10-14T14:57:04.964Z,60.74
2022-10-14T14:59:43.704Z,60.77
2022-10-14T15:02:14.807Z,61.10
2022-10-14T15:04:41.424Z,61.33
2022-10-14T15:07:21.036Z,61.48
2022-10-14T15:09:52.042Z,61.24
2022-10-14T15:12:19.917Z,61.60
2022-10-14T15:14:50.221Z,61.68
2022-10-14T15:17:34.302Z,61.93
2022-10-14T15:20:30.222Z,62.21
2022-10-14T15:22:56.720Z,62.45
2022-10-14T15:25:25.253Z,62.71
2022-10-14T15:27:51.613Z,63.23
2022-10-14T15:30:35.677Z,63.74
2022-10-14T15:33:17.905Z,63.87
2022-10-14T15:35:45.977Z,64.38
2022-10-14T15:38:18.874Z,64.52
2022-10-14T15:40:47.297Z,64.43
2022-10-14T15:43:19.175Z,64.50
2022-10-14T15:46:07.878Z,64.64
2022-10-14T15:48:34.469Z,64.81
2022-10-14T15:51:00.881Z,65.27
2022-10-14T15:53:27.419Z,65.36
2022-10-14T15:55:53.862Z,65.32
2022-10-14T15:58:20.282Z,65.65
2022-10-14T16:00:47.274Z,65.89
2022-10-14T16:03:14.749Z,66.08
2022-10-14T16:05:41.161Z,66.18
2022-10-14T16:08:12.733Z,66.40
2022-10-14T16:10:39.475Z,66.90
2022-10-14T16:13:06.130Z,66.92
2022-10-14T16:15:40.566Z,67.56
2022-10-14T16:18:06.979Z,67.51
2022-10-14T16:20:33.461Z,67.66
2022-10-14T16:23:04.216Z,67.77
2022-10-14T16:25:39.744Z,67.92
2022-10-14T16:28:10.026Z,68.15
2022-10-14T16:30:39.630Z,68.42
2022-10-14T16:33:06.514Z,68.39
2022-10-14T16:35:33.302Z,68.45
2022-10-14T16:37:59.788Z,68.52
2022-10-14T16:40:26.243Z,68.65
2022-10-14T16:42:53.256Z,68.79
2022-10-14T16:45:19.673Z,68.88
2022-10-14T16:47:46.098Z,68.69
2022-10-14T16:50:12.701Z,68.86
2022-10-14T16:52:59.786Z,68.94
2022-10-14T16:55:30.158Z,69.07
2022-10-14T16:57:56.594Z,69.15
2022-10-14T17:00:23.033Z,69.05
2022-10-14T17:02:49.442Z,69.31
2022-10-14T17:05:16.135Z,69.53
2022-10-14T17:07:43.632Z,69.47
2022-10-14T17:10:10.712Z,69.52
2022-10-14T17:12:37.720Z,69.57
2022-10-14T17:15:04.520Z,69.51
2022-10-14T17:17:31.014Z,69.76
2022-10-14T17:19:57.478Z,69.87
2022-10-14T17:22:24.455Z,69.94
2022-10-14T17:24:51.169Z,69.87
2022-10-14T17:27:24.162Z,69.96
2022-10-14T17:29:50.849Z,70.02
2022-10-14T17:32:17.887Z,70.41
2022-10-14T17:34:44.459Z,70.19
2022-10-14T17:37:11.246Z,70.21
2022-10-14T17:39:37.846Z,70.02
2022-10-14T17:42:04.537Z,69.71
2022-10-14T17:44:30.993Z,69.26
2022-10-14T17:46:57.501Z,69.49
2022-10-14T17:49:24.038Z,70.34
2022-10-14T17:51:50.499Z,70.44
2022-10-14T17:54:17.003Z,70.65
2022-10-14T17:56:43.858Z,70.46
2022-10-14T17:59:14.212Z,70.56
2022-10-14T18:02:01.567Z,70.54
2022-10-14T18:04:27.383Z,70.47
2022-10-14T18:06:54.233Z,70.44
2022-10-14T18:09:21.199Z,70.54
2022-10-14T18:14:37.963Z,70.29
2022-10-14T18:17:05.289Z,70.25
2022-10-14T18:19:32.043Z,70.09
2022-10-14T18:21:58.632Z,70.03
2022-10-14T18:24:25.384Z,69.98
2022-10-14T18:26:52.587Z,70.00
2022-10-14T18:29:19.079Z,70.04
2022-10-14T18:31:45.670Z,70.06
2022-10-14T18:34:12.343Z,70.13
2022-10-14T18:36:38.950Z,70.17
2022-10-14T18:39:07.482Z,70.14
2022-10-14T18:41:34.770Z,70.46
2022-10-14T18:44:01.245Z,70.30
2022-10-14T18:46:33.284Z,70.52
2022-10-14T18:49:00.969Z,70.52
2022-10-14T18:51:29.871Z,70.40
2022-10-14T18:54:12.683Z,70.40
2022-10-14T18:56:39.252Z,70.47
2022-10-14T18:59:14.123Z,70.36
2022-10-14T19:01:41.407Z,70.38
2022-10-14T19:04:09.958Z,70.17
2022-10-14T19:06:36.766Z,70.30
2022-10-14T19:09:04.117Z,70.10
2022-10-14T19:11:32.377Z,70.11
2022-10-14T19:14:00.725Z,70.01
2022-10-14T19:16:29.089Z,70.13
2022-10-14T19:19:11.947Z,70.09
2022-10-14T19:21:38.973Z,70.05
2022-10-14T19:24:08.199Z,70.03
2022-10-14T19:26:35.973Z,70.14
2022-10-14T19:29:06.372Z,70.14
2022-10-14T19:31:36.384Z,70.11
2022-10-14T19:34:05.369Z,69.99
2022-10-14T19:36:38.105Z,69.87
2022-10-14T19:39:06.851Z,69.87
2022-10-14T19:41:38.489Z,69.85
2022-10-14T19:44:05.357Z,69.74
2022-10-14T19:46:32.112Z,69.93
2022-10-14T19:49:02.258Z,69.72
2022-10-14T19:51:29.134Z,70.17
2022-10-14T19:53:56.116Z,69.78
2022-10-14T19:56:23.554Z,69.71
2022-10-14T19:58:51.961Z,69.84
2022-10-14T20:01:19.374Z,69.94
2022-10-14T20:03:46.030Z,69.87
2022-10-14T20:06:13.428Z,69.89
2022-10-14T20:08:40.102Z,69.69
2022-10-14T20:11:09.201Z,69.62
2022-10-14T20:13:37.687Z,69.66
2022-10-14T20:16:06.080Z,69.56
2022-10-14T20:18:33.243Z,69.57
2022-10-14T20:21:01.574Z,69.57
2022-10-14T20:23:28.071Z,69.69
2022-10-14T20:26:02.054Z,69.77
2022-10-14T20:28:28.641Z,69.80
2022-10-14T20:30:55.392Z,69.78
2022-10-14T20:33:21.874Z,69.70
2022-10-14T20:35:48.406Z,69.81
2022-10-14T20:38:14.948Z,69.88
2022-10-14T20:40:41.486Z,69.89
2022-10-14T20:43:08.060Z,69.78
2022-10-14T20:45:34.657Z,69.88
2022-10-14T20:48:01.204Z,69.90
2022-10-14T20:50:27.756Z,69.89
2022-10-14T20:52:54.304Z,70.02
2022-10-14T20:55:20.905Z,70.04
2022-10-14T20:57:47.497Z,70.26
2022-10-14T21:00:14.497Z,70.70
2022-10-14T21:02:41.177Z,71.08
2022-10-14T21:05:08.055Z,72.81
2022-10-14T21:07:34.615Z,73.63
2022-10-14T21:10:01.192Z,74.62
2022-10-14T21:12:27.755Z,75.00
2022-10-14T21:14:54.261Z,75.23
2022-10-14T21:17:20.850Z,75.76
2022-10-14T21:19:48.756Z,76.12
2022-10-14T21:22:15.300Z,76.37
2022-10-14T21:24:41.900Z,77.46
2022-10-14T21:27:08.615Z,78.05
2022-10-14T21:29:35.165Z,78.59
2022-10-14T21:32:02.737Z,79.24
2022-10-14T21:34:30.289Z,79.68
2022-10-14T21:36:57.297Z,80.45
2022-10-14T21:39:26.768Z,81.19
2022-10-14T21:41:53.343Z,82.23
2022-10-14T21:44:21.034Z,82.74
2022-10-14T21:46:48.504Z,83.47
2022-10-14T21:49:15.441Z,83.99
2022-10-14T21:51:42.270Z,84.45
2022-10-14T21:54:12.293Z,85.21
2022-10-14T21:56:39.339Z,85.68
2022-10-14T21:59:06.697Z,86.36
2022-10-14T22:01:33.278Z,86.69
2022-10-14T22:04:04.520Z,86.62
2022-10-14T22:06:32.150Z,86.80
2022-10-14T22:08:59.926Z,87.34
2022-10-14T22:11:38.031Z,87.42
2022-10-14T22:14:08.574Z,87.95
2022-10-14T22:16:35.519Z,88.15
2022-10-14T22:19:03.071Z,88.51
2022-10-14T22:21:31.022Z,88.65
2022-10-14T22:23:58.613Z,88.91
2022-10-14T22:26:26.282Z,89.13
2022-10-14T22:29:14.174Z,89.30
2022-10-14T22:31:40.918Z,89.49
2022-10-14T22:34:08.064Z,89.50
2022-10-14T22:36:35.009Z,89.68
2022-10-14T22:39:04.607Z,89.97
2022-10-14T22:41:35.191Z,90.40
2022-10-14T22:44:04.306Z,90.60
2022-10-14T22:46:32.641Z,91.04
2022-10-14T22:48:59.338Z,91.13
2022-10-14T22:51:35.027Z,91.48
2022-10-14T22:54:01.694Z,91.72
2022-10-14T22:56:29.516Z,91.67
2022-10-14T22:58:57.891Z,91.64
2022-10-14T23:01:27.536Z,91.82
2022-10-14T23:03:55.460Z,91.89
2022-10-14T23:06:21.910Z,92.14
2022-10-14T23:08:48.326Z,92.11
2022-10-14T23:11:16.812Z,92.17
2022-10-14T23:13:43.646Z,92.20
2022-10-14T23:16:15.660Z,92.22
2022-10-14T23:21:24.404Z,92.43
2022-10-14T23:23:51.896Z,92.42
2022-10-14T23:26:23.668Z,92.61
2022-10-14T23:28:57.689Z,92.63
2022-10-14T23:31:26.240Z,92.69
2022-10-14T23:33:53.136Z,92.81
2022-10-14T23:36:20.493Z,92.71
2022-10-14T23:38:46.951Z,92.85
2022-10-14T23:41:14.218Z,92.78
2022-10-14T23:43:41.132Z,92.91
2022-10-14T23:46:07.840Z,92.95
2022-10-14T23:48:34.556Z,93.01
2022-10-14T23:51:01.227Z,93.12
2022-10-14T23:53:28.200Z,93.15
2022-10-14T23:55:56.033Z,93.25
2022-10-14T23:58:23.032Z,93.34
